sensor_id;sensor_type;location;lat;lon;timestamp;P1;P2;P0
64229;PMS5003;50547;49.498;0.092;2023-02-28T00:01:37;13;13;
64229;PMS5003;50547;49.498;0.092;2023-02-28T00:04:06;13;13;
64229;PMS5003;50547;49.498;0.092;2023-02-28T00:06:36;12;12;
64229;PMS5003;50547;49.498;0.092;2023-02-28T00:09:05;14;14;
64229;PMS5003;50547;49.498;0.092;2023-02-28T00:11:34;13;13;
64229;PMS5003;50547;49.498;0.092;2023-02-28T00:14:03;13;13;
64229;PMS5003;50547;49.498;0.092;2023-02-28T00:16:32;13;13;
64229;PMS5003;50547;49.498;0.092;2023-02-28T00:19:01;13;13;
64229;PMS5003;50547;49.498;0.092;2023-02-28T00:21:30;13;13;
64229;PMS5003;50547;49.498;0.092;2023-02-28T00:24:00;13;13;
64229;PMS5003;50547;49.498;0.092;2023-02-28T00:26:29;13;13;
64229;PMS5003;50547;49.498;0.092;2023-02-28T00:28:58;13;13;
64229;PMS5003;50547;49.498;0.092;2023-02-28T00:31:27;13;13;
64229;PMS5003;50547;49.498;0.092;2023-02-28T00:33:56;13;13;
64229;PMS5003;50547;49.498;0.092;2023-02-28T00:36:25;13;13;
64229;PMS5003;50547;49.498;0.092;2023-02-28T00:38:55;11;11;
64229;PMS5003;50547;49.498;0.092;2023-02-28T00:41:24;13;13;
64229;PMS5003;50547;49.498;0.092;2023-02-28T00:43:53;13;13;
64229;PMS5003;50547;49.498;0.092;2023-02-28T00:46:22;11;11;
64229;PMS5003;50547;49.498;0.092;2023-02-28T00:48:51;11;11;
64229;PMS5003;50547;49.498;0.092;2023-02-28T00:51:17;13;13;
64229;PMS5003;50547;49.498;0.092;2023-02-28T00:53:46;11;11;
64229;PMS5003;50547;49.498;0.092;2023-02-28T00:56:15;13;13;
64229;PMS5003;50547;49.498;0.092;2023-02-28T00:58:44;11;11;
64229;PMS5003;50547;49.498;0.092;2023-02-28T01:01:14;11;11;
64229;PMS5003;50547;49.498;0.092;2023-02-28T01:03:43;11;11;
64229;PMS5003;50547;49.498;0.092;2023-02-28T01:06:12;11;11;
64229;PMS5003;50547;49.498;0.092;2023-02-28T01:08:41;11;11;
64229;PMS5003;50547;49.498;0.092;2023-02-28T01:11:11;11;11;
64229;PMS5003;50547;49.498;0.092;2023-02-28T01:13:43;11;11;
64229;PMS5003;50547;49.498;0.092;2023-02-28T01:16:13;11;11;
64229;PMS5003;50547;49.498;0.092;2023-02-28T01:18:43;11;11;
64229;PMS5003;50547;49.498;0.092;2023-02-28T01:21:14;10;10;
64229;PMS5003;50547;49.498;0.092;2023-02-28T01:23:46;11;11;
64229;PMS5003;50547;49.498;0.092;2023-02-28T01:26:16;11;11;
64229;PMS5003;50547;49.498;0.092;2023-02-28T01:28:47;11;11;
64229;PMS5003;50547;49.498;0.092;2023-02-28T01:31:18;11;11;
64229;PMS5003;50547;49.498;0.092;2023-02-28T01:33:48;11;11;
64229;PMS5003;50547;49.498;0.092;2023-02-28T01:36:18;11;11;
64229;PMS5003;50547;49.498;0.092;2023-02-28T01:38:50;11;11;
64229;PMS5003;50547;49.498;0.092;2023-02-28T01:41:20;11;11;
64229;PMS5003;50547;49.498;0.092;2023-02-28T01:43:53;10;10;
64229;PMS5003;50547;49.498;0.092;2023-02-28T01:46:27;11;11;
64229;PMS5003;50547;49.498;0.092;2023-02-28T01:48:59;10;10;
64229;PMS5003;50547;49.498;0.092;2023-02-28T01:51:34;11;11;
64229;PMS5003;50547;49.498;0.092;2023-02-28T01:54:07;11;11;
64229;PMS5003;50547;49.498;0.092;2023-02-28T01:56:41;11;11;
64229;PMS5003;50547;49.498;0.092;2023-02-28T01:59:18;11;11;
64229;PMS5003;50547;49.498;0.092;2023-02-28T02:01:52;11;11;
64229;PMS5003;50547;49.498;0.092;2023-02-28T02:04:22;11;11;
64229;PMS5003;50547;49.498;0.092;2023-02-28T02:06:55;11;11;
64229;PMS5003;50547;49.498;0.092;2023-02-28T02:09:24;11;11;
64229;PMS5003;50547;49.498;0.092;2023-02-28T02:11:53;11;11;
64229;PMS5003;50547;49.498;0.092;2023-02-28T02:14:28;11;11;
64229;PMS5003;50547;49.498;0.092;2023-02-28T02:17:10;11;11;
64229;PMS5003;50547;49.498;0.092;2023-02-28T02:20:59;11;11;
64229;PMS5003;50547;49.498;0.092;2023-02-28T02:23:48;11;11;
64229;PMS5003;50547;49.498;0.092;2023-02-28T02:26:39;11;11;
64229;PMS5003;50547;49.498;0.092;2023-02-28T02:29:26;11;11;
64229;PMS5003;50547;49.498;0.092;2023-02-28T02:32:28;11;11;
64229;PMS5003;50547;49.498;0.092;2023-02-28T02:35:15;11;11;
64229;PMS5003;50547;49.498;0.092;2023-02-28T02:37:49;11;11;
64229;PMS5003;50547;49.498;0.092;2023-02-28T02:40:21;11;11;
64229;PMS5003;50547;49.498;0.092;2023-02-28T02:42:54;13;13;
64229;PMS5003;50547;49.498;0.092;2023-02-28T02:45:31;13;13;
64229;PMS5003;50547;49.498;0.092;2023-02-28T02:48:03;11;11;
64229;PMS5003;50547;49.498;0.092;2023-02-28T02:50:38;13;13;
64229;PMS5003;50547;49.498;0.092;2023-02-28T02:53:11;13;13;
64229;PMS5003;50547;49.498;0.092;2023-02-28T02:55:44;13;13;
64229;PMS5003;50547;49.498;0.092;2023-02-28T02:58:16;13;13;
64229;PMS5003;50547;49.498;0.092;2023-02-28T03:00:52;13;13;
64229;PMS5003;50547;49.498;0.092;2023-02-28T03:03:23;13;13;
64229;PMS5003;50547;49.498;0.092;2023-02-28T03:05:53;13;13;
64229;PMS5003;50547;49.498;0.092;2023-02-28T03:08:18;13;13;
64229;PMS5003;50547;49.498;0.092;2023-02-28T03:10:48;13;13;
64229;PMS5003;50547;49.498;0.092;2023-02-28T03:13:32;13;13;
64229;PMS5003;50547;49.498;0.092;2023-02-28T03:16:18;13;13;
64229;PMS5003;50547;49.498;0.092;2023-02-28T03:19:00;14;14;
64229;PMS5003;50547;49.498;0.092;2023-02-28T03:21:40;13;13;
64229;PMS5003;50547;49.498;0.092;2023-02-28T03:24:19;14;14;
64229;PMS5003;50547;49.498;0.092;2023-02-28T03:26:57;14;14;
64229;PMS5003;50547;49.498;0.092;2023-02-28T03:29:34;15;14;
64229;PMS5003;50547;49.498;0.092;2023-02-28T03:32:09;14;14;
64229;PMS5003;50547;49.498;0.092;2023-02-28T03:34:46;15;14;
64229;PMS5003;50547;49.498;0.092;2023-02-28T03:37:20;15;14;
64229;PMS5003;50547;49.498;0.092;2023-02-28T03:39:53;15;14;
64229;PMS5003;50547;49.498;0.092;2023-02-28T03:42:27;17;15;
64229;PMS5003;50547;49.498;0.092;2023-02-28T03:45:00;17;15;
64229;PMS5003;50547;49.498;0.092;2023-02-28T03:47:33;18;16;
64229;PMS5003;50547;49.498;0.092;2023-02-28T03:50:08;18;16;
64229;PMS5003;50547;49.498;0.092;2023-02-28T03:52:44;18;16;
64229;PMS5003;50547;49.498;0.092;2023-02-28T03:55:18;19;17;
64229;PMS5003;50547;49.498;0.092;2023-02-28T03:57:52;19;17;
64229;PMS5003;50547;49.498;0.092;2023-02-28T04:00:27;18;16;
64229;PMS5003;50547;49.498;0.092;2023-02-28T04:03:01;20;17;
64229;PMS5003;50547;49.498;0.092;2023-02-28T04:05:31;20;17;
64229;PMS5003;50547;49.498;0.092;2023-02-28T04:08:03;20;17;
64229;PMS5003;50547;49.498;0.092;2023-02-28T04:10:33;20;17;
64229;PMS5003;50547;49.498;0.092;2023-02-28T04:13:02;19;17;
64229;PMS5003;50547;49.498;0.092;2023-02-28T04:15:31;20;17;
64229;PMS5003;50547;49.498;0.092;2023-02-28T04:18:00;20;17;
64229;PMS5003;50547;49.498;0.092;2023-02-28T04:20:30;21;18;
64229;PMS5003;50547;49.498;0.092;2023-02-28T04:22:59;22;19;
64229;PMS5003;50547;49.498;0.092;2023-02-28T04:25:28;21;18;
64229;PMS5003;50547;49.498;0.092;2023-02-28T04:27:57;21;18;
64229;PMS5003;50547;49.498;0.092;2023-02-28T04:30:26;22;19;
64229;PMS5003;50547;49.498;0.092;2023-02-28T04:32:55;20;17;
64229;PMS5003;50547;49.498;0.092;2023-02-28T04:35:25;22;19;
64229;PMS5003;50547;49.498;0.092;2023-02-28T04:37:54;21;18;
64229;PMS5003;50547;49.498;0.092;2023-02-28T04:40:23;21;18;
64229;PMS5003;50547;49.498;0.092;2023-02-28T04:42:52;22;19;
64229;PMS5003;50547;49.498;0.092;2023-02-28T04:45:21;21;18;
64229;PMS5003;50547;49.498;0.092;2023-02-28T04:47:50;22;19;
64229;PMS5003;50547;49.498;0.092;2023-02-28T04:50:19;22;19;
64229;PMS5003;50547;49.498;0.092;2023-02-28T04:52:48;22;19;
64229;PMS5003;50547;49.498;0.092;2023-02-28T04:55:18;22;19;
64229;PMS5003;50547;49.498;0.092;2023-02-28T04:57:47;23;20;
64229;PMS5003;50547;49.498;0.092;2023-02-28T05:00:16;22;19;
64229;PMS5003;50547;49.498;0.092;2023-02-28T05:02:46;22;19;
64229;PMS5003;50547;49.498;0.092;2023-02-28T05:05:15;22;19;
64229;PMS5003;50547;49.498;0.092;2023-02-28T05:07:44;23;20;
64229;PMS5003;50547;49.498;0.092;2023-02-28T05:10:13;23;20;
64229;PMS5003;50547;49.498;0.092;2023-02-28T05:12:42;23;20;
64229;PMS5003;50547;49.498;0.092;2023-02-28T05:15:12;23;20;
64229;PMS5003;50547;49.498;0.092;2023-02-28T05:17:42;23;20;
64229;PMS5003;50547;49.498;0.092;2023-02-28T05:20:12;22;19;
64229;PMS5003;50547;49.498;0.092;2023-02-28T05:22:38;23;20;
64229;PMS5003;50547;49.498;0.092;2023-02-28T05:25:08;22;19;
64229;PMS5003;50547;49.498;0.092;2023-02-28T05:27:40;22;19;
64229;PMS5003;50547;49.498;0.092;2023-02-28T05:30:10;23;20;
64229;PMS5003;50547;49.498;0.092;2023-02-28T05:32:40;23;20;
64229;PMS5003;50547;49.498;0.092;2023-02-28T05:35:10;23;20;
64229;PMS5003;50547;49.498;0.092;2023-02-28T05:37:39;23;20;
64229;PMS5003;50547;49.498;0.092;2023-02-28T05:40:09;23;20;
64229;PMS5003;50547;49.498;0.092;2023-02-28T05:42:39;23;20;
64229;PMS5003;50547;49.498;0.092;2023-02-28T05:45:08;23;20;
64229;PMS5003;50547;49.498;0.092;2023-02-28T05:47:38;23;20;
64229;PMS5003;50547;49.498;0.092;2023-02-28T05:50:08;24;21;
64229;PMS5003;50547;49.498;0.092;2023-02-28T05:52:38;23;20;
64229;PMS5003;50547;49.498;0.092;2023-02-28T05:55:07;22;19;
64229;PMS5003;50547;49.498;0.092;2023-02-28T05:57:37;23;20;
64229;PMS5003;50547;49.498;0.092;2023-02-28T06:00:07;24;21;
64229;PMS5003;50547;49.498;0.092;2023-02-28T06:02:38;24;21;
64229;PMS5003;50547;49.498;0.092;2023-02-28T06:05:09;24;21;
64229;PMS5003;50547;49.498;0.092;2023-02-28T06:07:42;24;21;
64229;PMS5003;50547;49.498;0.092;2023-02-28T06:10:13;24;21;
64229;PMS5003;50547;49.498;0.092;2023-02-28T06:12:42;23;20;
64229;PMS5003;50547;49.498;0.092;2023-02-28T06:15:12;23;20;
64229;PMS5003;50547;49.498;0.092;2023-02-28T06:17:43;22;19;
64229;PMS5003;50547;49.498;0.092;2023-02-28T06:20:13;24;21;
64229;PMS5003;50547;49.498;0.092;2023-02-28T06:22:42;25;22;
64229;PMS5003;50547;49.498;0.092;2023-02-28T06:25:11;23;20;
64229;PMS5003;50547;49.498;0.092;2023-02-28T06:27:40;23;20;
64229;PMS5003;50547;49.498;0.092;2023-02-28T06:30:10;25;22;
64229;PMS5003;50547;49.498;0.092;2023-02-28T06:32:40;23;20;
64229;PMS5003;50547;49.498;0.092;2023-02-28T06:35:09;24;21;
64229;PMS5003;50547;49.498;0.092;2023-02-28T06:37:38;27;23;
64229;PMS5003;50547;49.498;0.092;2023-02-28T06:40:08;24;21;
64229;PMS5003;50547;49.498;0.092;2023-02-28T06:42:38;23;20;
64229;PMS5003;50547;49.498;0.092;2023-02-28T06:45:08;25;22;
64229;PMS5003;50547;49.498;0.092;2023-02-28T06:47:39;23;20;
64229;PMS5003;50547;49.498;0.092;2023-02-28T06:50:10;23;20;
64229;PMS5003;50547;49.498;0.092;2023-02-28T06:52:40;23;20;
64229;PMS5003;50547;49.498;0.092;2023-02-28T06:55:10;23;20;
64229;PMS5003;50547;49.498;0.092;2023-02-28T06:57:40;24;21;
64229;PMS5003;50547;49.498;0.092;2023-02-28T07:00:10;24;21;
64229;PMS5003;50547;49.498;0.092;2023-02-28T07:02:40;24;21;
64229;PMS5003;50547;49.498;0.092;2023-02-28T07:05:09;23;20;
64229;PMS5003;50547;49.498;0.092;2023-02-28T07:07:38;25;22;
64229;PMS5003;50547;49.498;0.092;2023-02-28T07:10:05;24;21;
64229;PMS5003;50547;49.498;0.092;2023-02-28T07:12:35;24;21;
64229;PMS5003;50547;49.498;0.092;2023-02-28T07:15:05;25;22;
64229;PMS5003;50547;49.498;0.092;2023-02-28T07:17:35;23;20;
64229;PMS5003;50547;49.498;0.092;2023-02-28T07:20:05;24;21;
64229;PMS5003;50547;49.498;0.092;2023-02-28T07:22:35;24;21;
64229;PMS5003;50547;49.498;0.092;2023-02-28T07:25:04;25;22;
64229;PMS5003;50547;49.498;0.092;2023-02-28T07:27:34;24;21;
64229;PMS5003;50547;49.498;0.092;2023-02-28T07:30:04;24;21;
64229;PMS5003;50547;49.498;0.092;2023-02-28T07:32:33;23;20;
64229;PMS5003;50547;49.498;0.092;2023-02-28T07:35:03;25;22;
64229;PMS5003;50547;49.498;0.092;2023-02-28T07:37:33;24;21;
64229;PMS5003;50547;49.498;0.092;2023-02-28T07:39:59;25;22;
64229;PMS5003;50547;49.498;0.092;2023-02-28T07:42:28;24;21;
64229;PMS5003;50547;49.498;0.092;2023-02-28T07:44:55;24;21;
64229;PMS5003;50547;49.498;0.092;2023-02-28T07:47:24;24;21;
64229;PMS5003;50547;49.498;0.092;2023-02-28T07:49:54;25;22;
64229;PMS5003;50547;49.498;0.092;2023-02-28T07:52:19;23;20;
64229;PMS5003;50547;49.498;0.092;2023-02-28T07:54:49;24;21;
64229;PMS5003;50547;49.498;0.092;2023-02-28T07:57:18;25;22;
64229;PMS5003;50547;49.498;0.092;2023-02-28T07:59:48;25;22;
64229;PMS5003;50547;49.498;0.092;2023-02-28T08:02:17;24;21;
64229;PMS5003;50547;49.498;0.092;2023-02-28T08:04:44;24;21;
64229;PMS5003;50547;49.498;0.092;2023-02-28T08:07:13;24;21;
64229;PMS5003;50547;49.498;0.092;2023-02-28T08:09:40;25;22;
64229;PMS5003;50547;49.498;0.092;2023-02-28T08:12:09;24;21;
64229;PMS5003;50547;49.498;0.092;2023-02-28T08:14:39;24;21;
64229;PMS5003;50547;49.498;0.092;2023-02-28T08:17:09;25;22;
64229;PMS5003;50547;49.498;0.092;2023-02-28T08:19:36;23;20;
64229;PMS5003;50547;49.498;0.092;2023-02-28T08:22:05;23;20;
64229;PMS5003;50547;49.498;0.092;2023-02-28T08:24:34;23;20;
64229;PMS5003;50547;49.498;0.092;2023-02-28T08:27:03;22;19;
64229;PMS5003;50547;49.498;0.092;2023-02-28T08:29:32;23;20;
64229;PMS5003;50547;49.498;0.092;2023-02-28T08:32:02;21;18;
64229;PMS5003;50547;49.498;0.092;2023-02-28T08:34:27;21;18;
64229;PMS5003;50547;49.498;0.092;2023-02-28T08:36:57;22;19;
64229;PMS5003;50547;49.498;0.092;2023-02-28T08:39:26;21;18;
64229;PMS5003;50547;49.498;0.092;2023-02-28T08:41:52;20;17;
64229;PMS5003;50547;49.498;0.092;2023-02-28T08:44:21;18;16;
64229;PMS5003;50547;49.498;0.092;2023-02-28T08:46:50;20;17;
64229;PMS5003;50547;49.498;0.092;2023-02-28T08:49:20;20;17;
64229;PMS5003;50547;49.498;0.092;2023-02-28T08:51:49;20;17;
64229;PMS5003;50547;49.498;0.092;2023-02-28T08:54:18;20;17;
64229;PMS5003;50547;49.498;0.092;2023-02-28T08:56:44;20;17;
64229;PMS5003;50547;49.498;0.092;2023-02-28T08:59:13;19;17;
64229;PMS5003;50547;49.498;0.092;2023-02-28T09:01:40;20;17;
64229;PMS5003;50547;49.498;0.092;2023-02-28T09:04:09;18;16;
64229;PMS5003;50547;49.498;0.092;2023-02-28T09:06:38;20;17;
64229;PMS5003;50547;49.498;0.092;2023-02-28T09:09:07;20;17;
64229;PMS5003;50547;49.498;0.092;2023-02-28T09:11:37;20;17;
64229;PMS5003;50547;49.498;0.092;2023-02-28T09:14:06;20;17;
64229;PMS5003;50547;49.498;0.092;2023-02-28T09:16:32;20;17;
64229;PMS5003;50547;49.498;0.092;2023-02-28T09:19:02;20;17;
64229;PMS5003;50547;49.498;0.092;2023-02-28T09:21:27;21;18;
64229;PMS5003;50547;49.498;0.092;2023-02-28T09:23:57;20;17;
64229;PMS5003;50547;49.498;0.092;2023-02-28T09:26:26;20;17;
64229;PMS5003;50547;49.498;0.092;2023-02-28T09:28:56;20;17;
64229;PMS5003;50547;49.498;0.092;2023-02-28T09:31:26;20;17;
64229;PMS5003;50547;49.498;0.092;2023-02-28T09:33:57;20;17;
64229;PMS5003;50547;49.498;0.092;2023-02-28T09:36:23;18;16;
64229;PMS5003;50547;49.498;0.092;2023-02-28T09:38:54;19;17;
64229;PMS5003;50547;49.498;0.092;2023-02-28T09:41:24;20;17;
64229;PMS5003;50547;49.498;0.092;2023-02-28T09:43:55;17;15;
64229;PMS5003;50547;49.498;0.092;2023-02-28T09:46:30;19;17;
64229;PMS5003;50547;49.498;0.092;2023-02-28T09:49:04;19;17;
64229;PMS5003;50547;49.498;0.092;2023-02-28T09:51:40;20;17;
64229;PMS5003;50547;49.498;0.092;2023-02-28T09:54:16;20;17;
64229;PMS5003;50547;49.498;0.092;2023-02-28T09:56:49;17;15;
64229;PMS5003;50547;49.498;0.092;2023-02-28T09:59:25;18;16;
64229;PMS5003;50547;49.498;0.092;2023-02-28T10:02:10;17;15;
64229;PMS5003;50547;49.498;0.092;2023-02-28T10:04:50;15;14;
64229;PMS5003;50547;49.498;0.092;2023-02-28T10:07:31;18;16;
64229;PMS5003;50547;49.498;0.092;2023-02-28T10:10:16;18;16;
64229;PMS5003;50547;49.498;0.092;2023-02-28T10:12:53;14;14;
64229;PMS5003;50547;49.498;0.092;2023-02-28T10:15:27;14;14;
64229;PMS5003;50547;49.498;0.092;2023-02-28T10:18:00;14;14;
64229;PMS5003;50547;49.498;0.092;2023-02-28T10:20:33;18;16;
64229;PMS5003;50547;49.498;0.092;2023-02-28T10:23:36;17;15;
64229;PMS5003;50547;49.498;0.092;2023-02-28T10:26:08;18;16;
64229;PMS5003;50547;49.498;0.092;2023-02-28T10:28:42;15;14;
64229;PMS5003;50547;49.498;0.092;2023-02-28T10:31:13;17;15;
64229;PMS5003;50547;49.498;0.092;2023-02-28T10:33:46;15;14;
64229;PMS5003;50547;49.498;0.092;2023-02-28T10:36:17;14;14;
64229;PMS5003;50547;49.498;0.092;2023-02-28T10:38:49;18;16;
64229;PMS5003;50547;49.498;0.092;2023-02-28T10:41:26;14;14;
64229;PMS5003;50547;49.498;0.092;2023-02-28T10:44:12;14;14;
64229;PMS5003;50547;49.498;0.092;2023-02-28T10:46:43;13;13;
64229;PMS5003;50547;49.498;0.092;2023-02-28T10:49:13;13;13;
64229;PMS5003;50547;49.498;0.092;2023-02-28T10:51:46;14;14;
64229;PMS5003;50547;49.498;0.092;2023-02-28T10:54:22;14;14;
64229;PMS5003;50547;49.498;0.092;2023-02-28T10:57:27;14;14;
64229;PMS5003;50547;49.498;0.092;2023-02-28T11:00:06;14;14;
64229;PMS5003;50547;49.498;0.092;2023-02-28T11:02:42;15;14;
64229;PMS5003;50547;49.498;0.092;2023-02-28T11:05:22;14;14;
64229;PMS5003;50547;49.498;0.092;2023-02-28T11:07:53;18;16;
64229;PMS5003;50547;49.498;0.092;2023-02-28T11:10:25;15;14;
64229;PMS5003;50547;49.498;0.092;2023-02-28T11:12:59;15;14;
64229;PMS5003;50547;49.498;0.092;2023-02-28T11:15:29;18;16;
64229;PMS5003;50547;49.498;0.092;2023-02-28T11:18:01;15;14;
64229;PMS5003;50547;49.498;0.092;2023-02-28T11:20:35;14;14;
64229;PMS5003;50547;49.498;0.092;2023-02-28T11:23:04;14;14;
64229;PMS5003;50547;49.498;0.092;2023-02-28T11:25:40;15;14;
64229;PMS5003;50547;49.498;0.092;2023-02-28T11:28:24;17;15;
64229;PMS5003;50547;49.498;0.092;2023-02-28T11:31:00;14;14;
64229;PMS5003;50547;49.498;0.092;2023-02-28T11:33:40;14;14;
64229;PMS5003;50547;49.498;0.092;2023-02-28T11:36:12;27;23;
64229;PMS5003;50547;49.498;0.092;2023-02-28T11:38:43;18;16;
64229;PMS5003;50547;49.498;0.092;2023-02-28T11:41:17;14;14;
64229;PMS5003;50547;49.498;0.092;2023-02-28T11:44:00;14;14;
64229;PMS5003;50547;49.498;0.092;2023-02-28T11:46:37;13;13;
64229;PMS5003;50547;49.498;0.092;2023-02-28T11:49:16;13;13;
64229;PMS5003;50547;49.498;0.092;2023-02-28T11:51:59;13;13;
64229;PMS5003;50547;49.498;0.092;2023-02-28T11:54:45;14;14;
64229;PMS5003;50547;49.498;0.092;2023-02-28T11:57:34;15;14;
64229;PMS5003;50547;49.498;0.092;2023-02-28T12:00:18;18;16;
64229;PMS5003;50547;49.498;0.092;2023-02-28T12:03:04;18;16;
64229;PMS5003;50547;49.498;0.092;2023-02-28T12:05:49;18;16;
64229;PMS5003;50547;49.498;0.092;2023-02-28T12:08:29;17;15;
64229;PMS5003;50547;49.498;0.092;2023-02-28T12:11:14;17;15;
64229;PMS5003;50547;49.498;0.092;2023-02-28T12:14:03;18;16;
64229;PMS5003;50547;49.498;0.092;2023-02-28T12:16:49;18;16;
64229;PMS5003;50547;49.498;0.092;2023-02-28T12:19:26;18;16;
64229;PMS5003;50547;49.498;0.092;2023-02-28T12:22:09;18;16;
64229;PMS5003;50547;49.498;0.092;2023-02-28T12:24:51;20;17;
64229;PMS5003;50547;49.498;0.092;2023-02-28T12:28:07;20;17;
64229;PMS5003;50547;49.498;0.092;2023-02-28T12:30:41;20;17;
64229;PMS5003;50547;49.498;0.092;2023-02-28T12:33:18;20;17;
64229;PMS5003;50547;49.498;0.092;2023-02-28T12:35:52;22;19;
64229;PMS5003;50547;49.498;0.092;2023-02-28T12:38:25;23;20;
64229;PMS5003;50547;49.498;0.092;2023-02-28T12:40:57;22;19;
64229;PMS5003;50547;49.498;0.092;2023-02-28T12:43:31;23;20;
64229;PMS5003;50547;49.498;0.092;2023-02-28T12:46:05;23;20;
64229;PMS5003;50547;49.498;0.092;2023-02-28T12:48:40;24;21;
64229;PMS5003;50547;49.498;0.092;2023-02-28T12:51:13;25;22;
64229;PMS5003;50547;49.498;0.092;2023-02-28T12:53:49;24;21;
64229;PMS5003;50547;49.498;0.092;2023-02-28T12:56:29;25;22;
64229;PMS5003;50547;49.498;0.092;2023-02-28T12:59:10;27;23;
64229;PMS5003;50547;49.498;0.092;2023-02-28T13:01:49;25;22;
64229;PMS5003;50547;49.498;0.092;2023-02-28T13:09:13;26;23;
64229;PMS5003;50547;49.498;0.092;2023-02-28T13:11:45;27;23;
64229;PMS5003;50547;49.498;0.092;2023-02-28T13:14:19;29;25;
64229;PMS5003;50547;49.498;0.092;2023-02-28T13:16:54;26;23;
64229;PMS5003;50547;49.498;0.092;2023-02-28T13:19:27;26;23;
64229;PMS5003;50547;49.498;0.092;2023-02-28T13:21:58;23;20;
64229;PMS5003;50547;49.498;0.092;2023-02-28T13:24:46;23;20;
64229;PMS5003;50547;49.498;0.092;2023-02-28T13:27:32;23;20;
64229;PMS5003;50547;49.498;0.092;2023-02-28T13:31:09;23;20;
64229;PMS5003;50547;49.498;0.092;2023-02-28T13:33:49;23;20;
64229;PMS5003;50547;49.498;0.092;2023-02-28T13:36:34;23;20;
64229;PMS5003;50547;49.498;0.092;2023-02-28T13:39:03;23;20;
64229;PMS5003;50547;49.498;0.092;2023-02-28T13:42:23;23;20;
64229;PMS5003;50547;49.498;0.092;2023-02-28T13:45:20;24;21;
64229;PMS5003;50547;49.498;0.092;2023-02-28T13:47:52;26;23;
64229;PMS5003;50547;49.498;0.092;2023-02-28T13:50:27;26;23;
64229;PMS5003;50547;49.498;0.092;2023-02-28T13:53:03;24;21;
64229;PMS5003;50547;49.498;0.092;2023-02-28T13:55:53;25;22;
64229;PMS5003;50547;49.498;0.092;2023-02-28T13:58:35;24;21;
64229;PMS5003;50547;49.498;0.092;2023-02-28T14:01:14;24;21;
64229;PMS5003;50547;49.498;0.092;2023-02-28T14:04:00;24;21;
64229;PMS5003;50547;49.498;0.092;2023-02-28T14:06:46;25;22;
64229;PMS5003;50547;49.498;0.092;2023-02-28T14:09:19;23;20;
64229;PMS5003;50547;49.498;0.092;2023-02-28T14:11:53;23;20;
64229;PMS5003;50547;49.498;0.092;2023-02-28T14:14:54;28;24;
64229;PMS5003;50547;49.498;0.092;2023-02-28T14:17:24;26;23;
64229;PMS5003;50547;49.498;0.092;2023-02-28T14:19:54;24;21;
64229;PMS5003;50547;49.498;0.092;2023-02-28T14:22:38;25;22;
64229;PMS5003;50547;49.498;0.092;2023-02-28T14:25:19;24;21;
64229;PMS5003;50547;49.498;0.092;2023-02-28T14:27:58;25;22;
64229;PMS5003;50547;49.498;0.092;2023-02-28T14:30:45;23;20;
64229;PMS5003;50547;49.498;0.092;2023-02-28T14:33:27;24;21;
64229;PMS5003;50547;49.498;0.092;2023-02-28T14:36:11;23;20;
64229;PMS5003;50547;49.498;0.092;2023-02-28T14:38:45;23;20;
64229;PMS5003;50547;49.498;0.092;2023-02-28T14:41:19;23;20;
64229;PMS5003;50547;49.498;0.092;2023-02-28T14:43:52;23;20;
64229;PMS5003;50547;49.498;0.092;2023-02-28T14:46:25;23;20;
64229;PMS5003;50547;49.498;0.092;2023-02-28T14:48:58;23;20;
64229;PMS5003;50547;49.498;0.092;2023-02-28T14:51:28;23;20;
64229;PMS5003;50547;49.498;0.092;2023-02-28T14:53:57;23;20;
64229;PMS5003;50547;49.498;0.092;2023-02-28T14:56:30;23;20;
64229;PMS5003;50547;49.498;0.092;2023-02-28T14:59:04;24;21;
64229;PMS5003;50547;49.498;0.092;2023-02-28T15:01:34;27;23;
64229;PMS5003;50547;49.498;0.092;2023-02-28T15:04:05;26;23;
64229;PMS5003;50547;49.498;0.092;2023-02-28T15:06:34;24;21;
64229;PMS5003;50547;49.498;0.092;2023-02-28T15:09:08;22;19;
64229;PMS5003;50547;49.498;0.092;2023-02-28T15:11:39;23;20;
64229;PMS5003;50547;49.498;0.092;2023-02-28T15:14:13;23;20;
64229;PMS5003;50547;49.498;0.092;2023-02-28T15:16:46;22;19;
64229;PMS5003;50547;49.498;0.092;2023-02-28T15:19:21;21;18;
64229;PMS5003;50547;49.498;0.092;2023-02-28T15:21:54;23;20;
64229;PMS5003;50547;49.498;0.092;2023-02-28T15:24:31;23;20;
64229;PMS5003;50547;49.498;0.092;2023-02-28T15:27:06;25;22;
64229;PMS5003;50547;49.498;0.092;2023-02-28T15:29:42;23;20;
64229;PMS5003;50547;49.498;0.092;2023-02-28T15:32:31;23;20;
64229;PMS5003;50547;49.498;0.092;2023-02-28T15:35:18;24;21;
64229;PMS5003;50547;49.498;0.092;2023-02-28T15:37:52;23;20;
64229;PMS5003;50547;49.498;0.092;2023-02-28T15:40:24;25;22;
64229;PMS5003;50547;49.498;0.092;2023-02-28T15:42:58;22;19;
64229;PMS5003;50547;49.498;0.092;2023-02-28T15:45:31;20;17;
64229;PMS5003;50547;49.498;0.092;2023-02-28T15:48:03;22;19;
64229;PMS5003;50547;49.498;0.092;2023-02-28T15:50:33;23;20;
64229;PMS5003;50547;49.498;0.092;2023-02-28T15:53:03;20;17;
64229;PMS5003;50547;49.498;0.092;2023-02-28T15:55:32;22;19;
64229;PMS5003;50547;49.498;0.092;2023-02-28T15:58:01;19;17;
64229;PMS5003;50547;49.498;0.092;2023-02-28T16:00:31;22;19;
64229;PMS5003;50547;49.498;0.092;2023-02-28T16:03:00;20;17;
64229;PMS5003;50547;49.498;0.092;2023-02-28T16:05:30;23;20;
64229;PMS5003;50547;49.498;0.092;2023-02-28T16:08:00;21;18;
64229;PMS5003;50547;49.498;0.092;2023-02-28T16:10:39;20;17;
64229;PMS5003;50547;49.498;0.092;2023-02-28T16:13:09;21;18;
64229;PMS5003;50547;49.498;0.092;2023-02-28T16:15:42;20;17;
64229;PMS5003;50547;49.498;0.092;2023-02-28T16:18:12;20;17;
64229;PMS5003;50547;49.498;0.092;2023-02-28T16:20:42;20;17;
64229;PMS5003;50547;49.498;0.092;2023-02-28T16:23:11;20;17;
64229;PMS5003;50547;49.498;0.092;2023-02-28T16:25:40;20;17;
64229;PMS5003;50547;49.498;0.092;2023-02-28T16:28:15;20;17;
64229;PMS5003;50547;49.498;0.092;2023-02-28T16:30:48;23;20;
64229;PMS5003;50547;49.498;0.092;2023-02-28T16:33:20;23;20;
64229;PMS5003;50547;49.498;0.092;2023-02-28T16:35:46;22;19;
64229;PMS5003;50547;49.498;0.092;2023-02-28T16:38:15;26;23;
64229;PMS5003;50547;49.498;0.092;2023-02-28T16:40:44;25;22;
64229;PMS5003;50547;49.498;0.092;2023-02-28T16:43:15;24;21;
64229;PMS5003;50547;49.498;0.092;2023-02-28T16:45:46;24;21;
64229;PMS5003;50547;49.498;0.092;2023-02-28T16:48:16;29;25;
64229;PMS5003;50547;49.498;0.092;2023-02-28T16:50:45;26;23;
64229;PMS5003;50547;49.498;0.092;2023-02-28T16:53:15;24;21;
64229;PMS5003;50547;49.498;0.092;2023-02-28T16:55:44;23;20;
64229;PMS5003;50547;49.498;0.092;2023-02-28T16:58:14;22;19;
64229;PMS5003;50547;49.498;0.092;2023-02-28T17:00:44;28;24;
64229;PMS5003;50547;49.498;0.092;2023-02-28T17:03:19;28;24;
64229;PMS5003;50547;49.498;0.092;2023-02-28T17:05:51;27;23;